Flight Track Log - Related Links

Times and Time Zones

All times are in EDT time to prevent confusion due to time zone crossing. See the FLG3423 flight status page for this flight to view local times or setup timezone preferences in your user account.

Time Position Orientation Groundspeed Altitude Reporting Facility
EDT Latitude Longitude Course Direction KTS MPH feet Rate Location/Type
Wed 07:05:47 AM 40.8333 -73.8667 270° West 189 217 2,800  Level New York TRACON
Wed 07:06:41 AM 40.8833 -73.9000 333° Northwest 259 298 5,000 3,078 Climbing New York TRACON
Wed 07:07:42 AM 40.9000 -73.9833 285° West 272 313 8,700 3,550 Climbing New York TRACON
Wed 07:08:41 AM 40.8833 -74.0833 258° West 274 315 12,100 2,773 Climbing New York TRACON
Wed 07:09:41 AM 40.8833 -74.2000 270° West 333 383 14,200 2,400 Climbing New York TRACON
Wed 07:10:41 AM 40.8667 -74.3333 261° West 350 403 16,900 1,400 Climbing New York TRACON
Wed 07:11:00 AM 40.7834 -74.5770 270° West  Level FlightAware Approximate
Wed 07:11:41 AM 40.8606 -74.4531 266° West 386 444 17,000  Level New York Center
Wed 07:12:42 AM 40.8497 -74.5978 264° West 399 459 17,000  Level New York Center
Wed 07:13:41 AM 40.8364 -74.7425 263° West 394 453 17,000  Level New York Center
Wed 07:14:40 AM 40.8278 -74.8792 265° West 387 445 17,000 807 Level New York Center
Wed 07:15:40 AM 40.7894 -75.0139 249° West 387 445 18,600 1,785 Climbing New York Center
Wed 07:16:41 AM 40.7492 -75.1511 249° West 392 451 20,600 1,983 Climbing New York Center
Wed 07:17:41 AM 40.7083 -75.2908 249° West 407 468 22,600 2,000 Climbing New York Center
Wed 07:18:41 AM 40.6653 -75.4331 248° West 407 468 24,600 1,714 Climbing New York Center
Wed 07:19:40 AM 40.6242 -75.5750 249° West 413 475 26,000 694 Climbing New York Center
Wed 07:20:42 AM 40.5853 -75.7144 250° West 413 475 26,000  Level New York Center
Wed 07:21:41 AM 40.5397 -75.8533 247° West 419 482 26,000  Level New York Center
Wed 07:22:42 AM 40.4961 -75.9919 248° West 419 482 26,000  Level New York Center
Wed 07:23:42 AM 40.4522 -76.1333 248° West 419 482 26,000  Level New York Center
Wed 07:24:41 AM 40.4106 -76.2692 248° West 419 482 26,000  Level New York Center
Wed 07:25:42 AM 40.3706 -76.4103 250° West 419 482 26,000  Level New York Center
Wed 07:26:40 AM 40.3364 -76.5544 253° West 419 482 26,000  Level New York Center
Wed 07:27:42 AM 40.2983 -76.6956 251° West 419 482 26,000  Level New York Center
Wed 07:28:41 AM 40.2617 -76.8422 252° West 419 482 26,000  Level New York Center
Wed 07:29:42 AM 40.2253 -76.9803 251° West 414 476 26,000  Level New York Center
Wed 07:30:41 AM 40.1906 -77.1242 253° West 414 476 26,000  Level New York Center
Wed 07:31:39 AM 40.1514 -77.2672 250° West 414 476 26,000  Level New York Center
Wed 07:32:40 AM 40.1194 -77.3944 252° West 414 476 26,000  Level New York Center
Wed 07:33:32 AM 40.0903 -77.5092 252° West 413 475 26,000 -684 Level Cleveland Center
Wed 07:34:34 AM 40.0456 -77.6775 251° West 411 473 24,700 -1,645 Descending Cleveland Center
Wed 07:35:36 AM 40.0114 -77.8067 251° West 385 443 22,600 -1,306 Descending Cleveland Center
Wed 07:36:38 AM 39.9769 -77.9356 251° West 378 435 22,000 -290 Descending Cleveland Center
Wed 07:37:40 AM 39.9742 -78.0786 269° West 396 456 22,000 -339 Level Cleveland Center
Wed 07:38:42 AM 39.9897 -78.2147 279° West 383 441 21,300 -919 Descending Cleveland Center
Wed 07:39:44 AM 40.0097 -78.3625 280° West 375 432 20,100 -1,065 Descending Cleveland Center
Wed 07:40:46 AM 40.0278 -78.4886 281° West 360 414 19,100 -976 Descending Cleveland Center
Wed 07:41:47 AM 40.0461 -78.6175 281° West 360 414 18,100 -878 Descending Cleveland Center
Wed 07:42:49 AM 40.0639 -78.7436 280° West 360 414 17,300 -871 Descending Cleveland Center
Wed 07:43:51 AM 40.0811 -78.8700 280° West 358 412 16,300 -1,113 Descending Cleveland Center
Wed 07:44:53 AM 40.1028 -79.0211 281° West 356 410 15,000 -1,065 Descending Cleveland Center
Wed 07:45:55 AM 40.1189 -79.1456 280° West 353 406 14,100 -919 Descending Cleveland Center
Wed 07:46:57 AM 40.1356 -79.2706 280° West 350 403 13,100 -968 Descending Cleveland Center
Wed 07:47:59 AM 40.1506 -79.3819 280° West 349 402 12,100 -1,065 Descending Cleveland Center
Wed 07:49:01 AM 40.1706 -79.5311 280° West 348 400 10,900 -1,016 Descending Cleveland Center
Wed 07:50:03 AM 40.1875 -79.6561 280° West 348 400 10,000 -581 Descending Cleveland Center
Wed 07:51:05 AM 40.2214 -79.7481 296° West 291 335 9,700 -919 Descending Cleveland Center
Wed 07:52:07 AM 40.2781 -79.8081 321° Northwest 267 307 8,100 -1,548 Descending Cleveland Center
Wed 07:53:09 AM 40.3342 -79.8697 320° Northwest 266 306 6,500 -1,500 Descending Cleveland Center
Wed 07:54:11 AM 40.3994 -79.9397 321° Northwest 259 298 5,000 -919 Descending Cleveland Center
Wed 07:55:13 AM 40.4497 -79.9936 321° Northwest 243 280 4,600 -480 Descending Cleveland Center
Wed 07:56:16 AM 40.4972 -80.0422 322° Northwest 225 259 4,000 -774 Descending Cleveland Center
Wed 07:57:17 AM 40.4983 -80.1069 271° West 185 213 3,000 -780 Descending Cleveland Center
Wed 07:58:19 AM 40.4989 -80.1508 271° West 130 150 2,400 -629 Descending Cleveland Center
Wed 07:59:21 AM 40.5000 -80.2014 272° West 119 137 1,700 -677 Descending Cleveland Center
Wed 08:01:00 AM 40.4833 -80.2167 303° West  Level FlightAware Approximate
Wed 08:08:00 AM 40.4914 -80.2327 303° West  Level Estimated

Login

Don't have an account? Register now (free) for customized features, flight alerts, and more!